sensor_id;sensor_type;location;lat;lon;timestamp;pressure;altitude;pressure_sealevel;temperature;humidity
14242;BME280;7205;50.864;12.766;2023-05-11T00:01:05;97373.94;;;14.85;100.00
14242;BME280;7205;50.864;12.766;2023-05-11T00:03:32;97372.13;;;14.86;100.00
14242;BME280;7205;50.864;12.766;2023-05-11T00:06:00;97370.50;;;14.85;100.00
14242;BME280;7205;50.864;12.766;2023-05-11T00:08:26;97370.50;;;14.85;100.00
14242;BME280;7205;50.864;12.766;2023-05-11T00:10:53;97371.50;;;14.84;100.00
14242;BME280;7205;50.864;12.766;2023-05-11T00:13:20;97365.56;;;14.82;100.00
14242;BME280;7205;50.864;12.766;2023-05-11T00:15:47;97369.25;;;14.81;100.00
14242;BME280;7205;50.864;12.766;2023-05-11T00:18:15;97368.84;;;14.84;100.00
14242;BME280;7205;50.864;12.766;2023-05-11T00:20:42;97370.69;;;14.83;100.00
14242;BME280;7205;50.864;12.766;2023-05-11T00:23:08;97365.38;;;14.83;100.00
14242;BME280;7205;50.864;12.766;2023-05-11T00:25:35;97360.25;;;14.82;100.00
14242;BME280;7205;50.864;12.766;2023-05-11T00:28:03;97364.78;;;14.81;100.00
14242;BME280;7205;50.864;12.766;2023-05-11T00:30:31;97350.66;;;14.81;100.00
14242;BME280;7205;50.864;12.766;2023-05-11T00:32:58;97353.13;;;14.76;100.00
14242;BME280;7205;50.864;12.766;2023-05-11T00:35:26;97354.56;;;14.78;100.00
14242;BME280;7205;50.864;12.766;2023-05-11T00:37:53;97356.41;;;14.78;100.00
14242;BME280;7205;50.864;12.766;2023-05-11T00:40:19;97359.25;;;14.76;100.00
14242;BME280;7205;50.864;12.766;2023-05-11T00:42:46;97353.13;;;14.76;100.00
14242;BME280;7205;50.864;12.766;2023-05-11T00:45:13;97346.41;;;14.73;100.00
14242;BME280;7205;50.864;12.766;2023-05-11T00:47:40;97351.50;;;14.75;100.00
14242;BME280;7205;50.864;12.766;2023-05-11T00:50:07;97342.09;;;14.72;100.00
14242;BME280;7205;50.864;12.766;2023-05-11T00:52:36;97344.53;;;14.74;100.00
14242;BME280;7205;50.864;12.766;2023-05-11T00:55:03;97349.22;;;14.72;100.00
14242;BME280;7205;50.864;12.766;2023-05-11T00:57:30;97346.41;;;14.73;100.00
14242;BME280;7205;50.864;12.766;2023-05-11T00:59:58;97346.41;;;14.73;100.00
14242;BME280;7205;50.864;12.766;2023-05-11T01:02:27;97344.97;;;14.71;100.00
14242;BME280;7205;50.864;12.766;2023-05-11T01:04:54;97340.47;;;14.71;100.00
14242;BME280;7205;50.864;12.766;2023-05-11T01:07:25;97339.63;;;14.71;100.00
14242;BME280;7205;50.864;12.766;2023-05-11T01:10:00;97341.47;;;14.70;100.00
14242;BME280;7205;50.864;12.766;2023-05-11T01:12:39;97340.88;;;14.68;100.00
14242;BME280;7205;50.864;12.766;2023-05-11T01:15:12;97341.47;;;14.70;100.00
14242;BME280;7205;50.864;12.766;2023-05-11T01:17:45;97334.31;;;14.71;100.00
14242;BME280;7205;50.864;12.766;2023-05-11T01:20:17;97332.28;;;14.73;100.00
14242;BME280;7205;50.864;12.766;2023-05-11T01:23:11;97331.44;;;14.72;100.00
14242;BME280;7205;50.864;12.766;2023-05-11T01:26:07;97342.91;;;14.73;100.00
14242;BME280;7205;50.864;12.766;2023-05-11T01:28:57;97337.59;;;14.73;100.00
14242;BME280;7205;50.864;12.766;2023-05-11T01:31:30;97342.69;;;14.74;100.00
14242;BME280;7205;50.864;12.766;2023-05-11T01:34:00;97345.16;;;14.76;100.00
14242;BME280;7205;50.864;12.766;2023-05-11T01:36:33;97343.09;;;14.78;100.00
14242;BME280;7205;50.864;12.766;2023-05-11T01:39:03;97334.31;;;14.77;100.00
14242;BME280;7205;50.864;12.766;2023-05-11T01:41:32;97338.63;;;14.78;100.00
14242;BME280;7205;50.864;12.766;2023-05-11T01:44:05;97342.28;;;14.77;100.00
14242;BME280;7205;50.864;12.766;2023-05-11T01:46:34;97342.28;;;14.77;100.00
14242;BME280;7205;50.864;12.766;2023-05-11T01:49:05;97336.34;;;14.75;100.00
14242;BME280;7205;50.864;12.766;2023-05-11T01:51:34;97346.75;;;14.77;100.00
14242;BME280;7205;50.864;12.766;2023-05-11T01:54:05;97341.66;;;14.75;100.00
14242;BME280;7205;50.864;12.766;2023-05-11T01:56:34;97342.91;;;14.73;100.00
14242;BME280;7205;50.864;12.766;2023-05-11T01:59:01;97346.97;;;14.75;100.00
14242;BME280;7205;50.864;12.766;2023-05-11T02:01:29;97343.53;;;14.75;100.00
14242;BME280;7205;50.864;12.766;2023-05-11T02:03:59;97345.34;;;14.74;100.00
14242;BME280;7205;50.864;12.766;2023-05-11T02:06:29;97345.34;;;14.74;100.00
14242;BME280;7205;50.864;12.766;2023-05-11T02:08:59;97346.59;;;14.78;100.00
14242;BME280;7205;50.864;12.766;2023-05-11T02:11:28;97346.59;;;14.78;100.00
14242;BME280;7205;50.864;12.766;2023-05-11T02:13:57;97345.75;;;14.78;100.00
14242;BME280;7205;50.864;12.766;2023-05-11T02:16:25;97344.72;;;14.79;100.00
14242;BME280;7205;50.864;12.766;2023-05-11T02:18:54;97343.94;;;14.78;100.00
14242;BME280;7205;50.864;12.766;2023-05-11T02:21:25;97343.31;;;14.76;100.00
14242;BME280;7205;50.864;12.766;2023-05-11T02:23:53;97342.69;;;14.74;100.00
14242;BME280;7205;50.864;12.766;2023-05-11T02:26:24;97343.31;;;14.76;100.00
14242;BME280;7205;50.864;12.766;2023-05-11T02:28:50;97341.88;;;14.74;100.00
14242;BME280;7205;50.864;12.766;2023-05-11T02:31:20;97348.00;;;14.74;100.00
14242;BME280;7205;50.864;12.766;2023-05-11T02:33:50;97339.22;;;14.74;100.00
14242;BME280;7205;50.864;12.766;2023-05-11T02:36:20;97345.16;;;14.76;100.00
14242;BME280;7205;50.864;12.766;2023-05-11T02:38:55;97345.34;;;14.74;100.00
14242;BME280;7205;50.864;12.766;2023-05-11T02:41:25;97334.72;;;14.74;100.00
14242;BME280;7205;50.864;12.766;2023-05-11T02:43:58;97339.00;;;14.75;100.00
14242;BME280;7205;50.864;12.766;2023-05-11T02:46:31;97339.00;;;14.75;100.00
14242;BME280;7205;50.864;12.766;2023-05-11T02:48:59;97342.69;;;14.74;100.00
14242;BME280;7205;50.864;12.766;2023-05-11T02:51:31;97342.69;;;14.74;100.00
14242;BME280;7205;50.864;12.766;2023-05-11T02:54:00;97335.75;;;14.73;100.00
14242;BME280;7205;50.864;12.766;2023-05-11T02:56:32;97340.25;;;14.73;100.00
14242;BME280;7205;50.864;12.766;2023-05-11T02:58:59;97339.44;;;14.72;100.00
14242;BME280;7205;50.864;12.766;2023-05-11T03:01:27;97337.81;;;14.71;100.00
14242;BME280;7205;50.864;12.766;2023-05-11T03:03:54;97338.59;;;14.72;100.00
14242;BME280;7205;50.864;12.766;2023-05-11T03:06:23;97342.09;;;14.72;100.00
14242;BME280;7205;50.864;12.766;2023-05-11T03:08:50;97337.81;;;14.71;100.00
14242;BME280;7205;50.864;12.766;2023-05-11T03:11:19;97340.06;;;14.68;100.00
14242;BME280;7205;50.864;12.766;2023-05-11T03:13:47;97338.81;;;14.70;100.00
14242;BME280;7205;50.864;12.766;2023-05-11T03:16:16;97341.06;;;14.67;100.00
14242;BME280;7205;50.864;12.766;2023-05-11T03:18:45;97337.41;;;14.68;100.00
14242;BME280;7205;50.864;12.766;2023-05-11T03:21:15;97337.63;;;14.66;100.00
14242;BME280;7205;50.864;12.766;2023-05-11T03:23:46;97342.09;;;14.66;100.00
14242;BME280;7205;50.864;12.766;2023-05-11T03:26:16;97343.72;;;14.67;100.00
14242;BME280;7205;50.864;12.766;2023-05-11T03:28:46;97339.66;;;14.64;100.00
14242;BME280;7205;50.864;12.766;2023-05-11T03:31:13;97335.16;;;14.65;100.00
14242;BME280;7205;50.864;12.766;2023-05-11T03:33:40;97342.09;;;14.66;100.00
14242;BME280;7205;50.864;12.766;2023-05-11T03:36:09;97337.63;;;14.66;100.00
14242;BME280;7205;50.864;12.766;2023-05-11T03:38:37;97339.22;;;14.67;100.00
14242;BME280;7205;50.864;12.766;2023-05-11T03:41:08;97340.69;;;14.70;100.00
14242;BME280;7205;50.864;12.766;2023-05-11T03:43:37;97336.38;;;14.69;100.00
14242;BME280;7205;50.864;12.766;2023-05-11T03:46:06;97335.56;;;14.68;100.00
14242;BME280;7205;50.864;12.766;2023-05-11T03:48:33;97334.97;;;14.66;100.00
14242;BME280;7205;50.864;12.766;2023-05-11T03:51:02;97334.53;;;14.69;100.00
14242;BME280;7205;50.864;12.766;2023-05-11T03:53:29;97336.75;;;14.72;100.00
14242;BME280;7205;50.864;12.766;2023-05-11T03:55:57;97337.19;;;14.69;100.00
14242;BME280;7205;50.864;12.766;2023-05-11T03:58:24;97333.50;;;14.70;100.00
14242;BME280;7205;50.864;12.766;2023-05-11T04:00:51;97328.19;;;14.70;100.00
14242;BME280;7205;50.864;12.766;2023-05-11T04:03:19;97330.63;;;14.72;100.00
14242;BME280;7205;50.864;12.766;2023-05-11T04:05:46;97332.28;;;14.73;100.00
14242;BME280;7205;50.864;12.766;2023-05-11T04:08:13;97324.50;;;14.71;100.00
14242;BME280;7205;50.864;12.766;2023-05-11T04:10:40;97330.44;;;14.73;100.00
14242;BME280;7205;50.864;12.766;2023-05-11T04:13:07;97328.38;;;14.75;100.00
14242;BME280;7205;50.864;12.766;2023-05-11T04:15:34;97328.38;;;14.75;100.00
14242;BME280;7205;50.864;12.766;2023-05-11T04:18:02;97334.31;;;14.77;100.00
14242;BME280;7205;50.864;12.766;2023-05-11T04:20:32;97335.75;;;14.80;100.00
14242;BME280;7205;50.864;12.766;2023-05-11T04:22:59;97332.25;;;14.79;100.00
14242;BME280;7205;50.864;12.766;2023-05-11T04:25:25;97332.44;;;14.84;100.00
14242;BME280;7205;50.864;12.766;2023-05-11T04:27:53;97336.72;;;14.85;100.00
14242;BME280;7205;50.864;12.766;2023-05-11T04:30:19;97345.09;;;14.89;100.00
14242;BME280;7205;50.864;12.766;2023-05-11T04:32:46;97340.81;;;14.88;100.00
14242;BME280;7205;50.864;12.766;2023-05-11T04:35:13;97337.53;;;14.92;100.00
14242;BME280;7205;50.864;12.766;2023-05-11T04:37:42;97337.09;;;14.95;100.00
14242;BME280;7205;50.864;12.766;2023-05-11T04:40:10;97341.84;;;14.93;100.00
14242;BME280;7205;50.864;12.766;2023-05-11T04:42:39;97333.84;;;14.93;100.00
14242;BME280;7205;50.864;12.766;2023-05-11T04:45:11;97342.41;;;14.95;100.00
14242;BME280;7205;50.864;12.766;2023-05-11T04:47:38;97327.06;;;14.97;100.00
14242;BME280;7205;50.864;12.766;2023-05-11T04:50:07;97335.66;;;14.99;100.00
14242;BME280;7205;50.864;12.766;2023-05-11T04:52:34;97337.06;;;15.02;100.00
14242;BME280;7205;50.864;12.766;2023-05-11T04:55:03;97334.22;;;15.03;100.00
14242;BME280;7205;50.864;12.766;2023-05-11T04:57:30;97334.03;;;15.05;100.00
14242;BME280;7205;50.864;12.766;2023-05-11T04:59:57;97344.00;;;15.09;100.00
14242;BME280;7205;50.864;12.766;2023-05-11T05:02:24;97341.16;;;15.11;100.00
14242;BME280;7205;50.864;12.766;2023-05-11T05:04:51;97340.72;;;15.14;100.00
14242;BME280;7205;50.864;12.766;2023-05-11T05:07:19;97332.53;;;15.16;100.00
14242;BME280;7205;50.864;12.766;2023-05-11T05:09:46;97333.75;;;15.20;100.00
14242;BME280;7205;50.864;12.766;2023-05-11T05:12:15;97335.34;;;15.27;100.00
14242;BME280;7205;50.864;12.766;2023-05-11T05:14:42;97339.41;;;15.36;100.00
14242;BME280;7205;50.864;12.766;2023-05-11T05:17:09;97340.19;;;15.50;100.00
14242;BME280;7205;50.864;12.766;2023-05-11T05:19:36;97330.50;;;15.62;100.00
14242;BME280;7205;50.864;12.766;2023-05-11T05:22:04;97338.38;;;15.75;100.00
14242;BME280;7205;50.864;12.766;2023-05-11T05:24:32;97340.94;;;15.88;100.00
14242;BME280;7205;50.864;12.766;2023-05-11T05:26:59;97344.94;;;16.03;100.00
14242;BME280;7205;50.864;12.766;2023-05-11T05:29:28;97345.66;;;16.17;100.00
14242;BME280;7205;50.864;12.766;2023-05-11T05:31:55;97332.81;;;16.32;100.00
14242;BME280;7205;50.864;12.766;2023-05-11T05:34:24;97333.97;;;16.43;100.00
14242;BME280;7205;50.864;12.766;2023-05-11T05:36:51;97329.19;;;16.51;98.68
14242;BME280;7205;50.864;12.766;2023-05-11T05:39:18;97331.56;;;16.59;97.01
14242;BME280;7205;50.864;12.766;2023-05-11T05:41:45;97325.81;;;16.62;95.04
14242;BME280;7205;50.864;12.766;2023-05-11T05:44:12;97328.41;;;16.69;94.08
14242;BME280;7205;50.864;12.766;2023-05-11T05:46:40;97331.81;;;16.76;93.00
14242;BME280;7205;50.864;12.766;2023-05-11T05:49:07;97336.03;;;16.83;92.20
14242;BME280;7205;50.864;12.766;2023-05-11T05:51:36;97318.94;;;16.91;90.97
14242;BME280;7205;50.864;12.766;2023-05-11T05:54:03;97326.03;;;16.97;89.43
14242;BME280;7205;50.864;12.766;2023-05-11T05:56:30;97334.78;;;17.04;88.99
14242;BME280;7205;50.864;12.766;2023-05-11T05:58:59;97328.69;;;17.15;88.00
14242;BME280;7205;50.864;12.766;2023-05-11T06:01:26;97336.41;;;17.23;86.96
14242;BME280;7205;50.864;12.766;2023-05-11T06:03:55;97335.72;;;17.27;84.88
14242;BME280;7205;50.864;12.766;2023-05-11T06:06:23;97332.59;;;17.30;83.33
14242;BME280;7205;50.864;12.766;2023-05-11T06:08:50;97331.91;;;17.35;82.39
14242;BME280;7205;50.864;12.766;2023-05-11T06:11:17;97329.63;;;17.38;81.48
14242;BME280;7205;50.864;12.766;2023-05-11T06:13:44;97334.06;;;17.44;80.60
14242;BME280;7205;50.864;12.766;2023-05-11T06:16:10;97333.78;;;17.52;80.64
14242;BME280;7205;50.864;12.766;2023-05-11T06:18:37;97336.34;;;17.59;79.08
14242;BME280;7205;50.864;12.766;2023-05-11T06:21:07;97330.31;;;17.64;78.59
14242;BME280;7205;50.864;12.766;2023-05-11T06:23:34;97331.28;;;17.69;77.80
14242;BME280;7205;50.864;12.766;2023-05-11T06:26:01;97338.00;;;17.72;77.14
14242;BME280;7205;50.864;12.766;2023-05-11T06:28:30;97334.09;;;17.74;76.50
14242;BME280;7205;50.864;12.766;2023-05-11T06:31:01;97332.81;;;17.77;76.11
14242;BME280;7205;50.864;12.766;2023-05-11T06:33:32;97331.09;;;17.82;76.12
14242;BME280;7205;50.864;12.766;2023-05-11T06:36:03;97331.44;;;17.86;75.29
14242;BME280;7205;50.864;12.766;2023-05-11T06:38:31;97330.19;;;17.88;74.59
14242;BME280;7205;50.864;12.766;2023-05-11T06:40:58;97328.91;;;17.91;73.98
14242;BME280;7205;50.864;12.766;2023-05-11T06:43:25;97327.84;;;17.92;73.69
14242;BME280;7205;50.864;12.766;2023-05-11T06:45:52;97333.78;;;17.94;73.62
14242;BME280;7205;50.864;12.766;2023-05-11T06:48:19;97333.91;;;17.99;73.04
14242;BME280;7205;50.864;12.766;2023-05-11T06:50:47;97332.06;;;17.99;72.84
14242;BME280;7205;50.864;12.766;2023-05-11T06:53:14;97334.84;;;18.04;72.99
14242;BME280;7205;50.864;12.766;2023-05-11T06:55:43;97335.81;;;18.10;72.80
14242;BME280;7205;50.864;12.766;2023-05-11T06:58:10;97335.94;;;18.15;72.84
14242;BME280;7205;50.864;12.766;2023-05-11T07:00:37;97336.84;;;18.20;72.11
14242;BME280;7205;50.864;12.766;2023-05-11T07:03:04;97328.16;;;18.25;71.87
14242;BME280;7205;50.864;12.766;2023-05-11T07:05:31;97331.53;;;18.32;71.96
14242;BME280;7205;50.864;12.766;2023-05-11T07:07:58;97330.59;;;18.38;71.83
14242;BME280;7205;50.864;12.766;2023-05-11T07:10:25;97333.56;;;18.48;72.02
14242;BME280;7205;50.864;12.766;2023-05-11T07:12:53;97326.34;;;18.60;71.52
14242;BME280;7205;50.864;12.766;2023-05-11T07:15:19;97327.16;;;18.72;70.93
14242;BME280;7205;50.864;12.766;2023-05-11T07:17:46;97324.22;;;18.85;70.24
14242;BME280;7205;50.864;12.766;2023-05-11T07:20:14;97335.50;;;18.99;69.95
14242;BME280;7205;50.864;12.766;2023-05-11T07:22:40;97335.00;;;19.13;68.99
14242;BME280;7205;50.864;12.766;2023-05-11T07:25:07;97331.00;;;19.27;68.52
14242;BME280;7205;50.864;12.766;2023-05-11T07:27:35;97329.69;;;19.41;68.35
14242;BME280;7205;50.864;12.766;2023-05-11T07:30:04;97327.78;;;19.53;67.36
14242;BME280;7205;50.864;12.766;2023-05-11T07:32:31;97328.81;;;19.64;66.35
14242;BME280;7205;50.864;12.766;2023-05-11T07:34:58;97335.06;;;19.69;65.19
14242;BME280;7205;50.864;12.766;2023-05-11T07:37:29;97336.69;;;19.70;64.17
14242;BME280;7205;50.864;12.766;2023-05-11T07:39:55;97334.25;;;19.69;63.86
14242;BME280;7205;50.864;12.766;2023-05-11T07:42:22;97343.75;;;19.76;63.98
14242;BME280;7205;50.864;12.766;2023-05-11T07:44:49;97330.78;;;19.85;63.85
14242;BME280;7205;50.864;12.766;2023-05-11T07:47:17;97345.78;;;19.98;63.74
14242;BME280;7205;50.864;12.766;2023-05-11T07:49:45;97340.44;;;20.14;63.64
14242;BME280;7205;50.864;12.766;2023-05-11T07:52:13;97342.66;;;20.34;63.31
14242;BME280;7205;50.864;12.766;2023-05-11T07:54:39;97332.81;;;20.56;63.01
14242;BME280;7205;50.864;12.766;2023-05-11T07:57:06;97336.84;;;20.75;61.68
14242;BME280;7205;50.864;12.766;2023-05-11T07:59:33;97346.59;;;20.97;61.11
14242;BME280;7205;50.864;12.766;2023-05-11T08:02:00;97348.97;;;21.15;60.08
14242;BME280;7205;50.864;12.766;2023-05-11T08:04:28;97342.75;;;21.32;59.02
14242;BME280;7205;50.864;12.766;2023-05-11T08:06:55;97340.19;;;21.42;58.76
14242;BME280;7205;50.864;12.766;2023-05-11T08:09:22;97330.03;;;21.49;58.21
14242;BME280;7205;50.864;12.766;2023-05-11T08:11:49;97336.53;;;21.53;57.21
14242;BME280;7205;50.864;12.766;2023-05-11T08:14:16;97336.53;;;21.53;57.04
14242;BME280;7205;50.864;12.766;2023-05-11T08:16:43;97335.22;;;21.55;56.90
14242;BME280;7205;50.864;12.766;2023-05-11T08:19:09;97347.09;;;21.59;56.77
14242;BME280;7205;50.864;12.766;2023-05-11T08:21:38;97344.41;;;21.59;55.49
14242;BME280;7205;50.864;12.766;2023-05-11T08:24:06;97338.72;;;21.56;55.80
14242;BME280;7205;50.864;12.766;2023-05-11T08:26:33;97347.88;;;21.55;55.34
14242;BME280;7205;50.864;12.766;2023-05-11T08:29:00;97341.66;;;21.54;55.30
14242;BME280;7205;50.864;12.766;2023-05-11T08:31:28;97341.16;;;21.57;55.67
14242;BME280;7205;50.864;12.766;2023-05-11T08:33:55;97340.66;;;21.60;54.92
14242;BME280;7205;50.864;12.766;2023-05-11T08:36:22;97341.72;;;21.59;54.50
14242;BME280;7205;50.864;12.766;2023-05-11T08:38:50;97346.34;;;21.64;54.17
14242;BME280;7205;50.864;12.766;2023-05-11T08:41:17;97348.28;;;21.68;53.75
14242;BME280;7205;50.864;12.766;2023-05-11T08:43:44;97341.56;;;21.71;53.16
14242;BME280;7205;50.864;12.766;2023-05-11T08:46:16;97347.53;;;21.73;53.16
14242;BME280;7205;50.864;12.766;2023-05-11T08:48:43;97338.06;;;21.70;52.87
14242;BME280;7205;50.864;12.766;2023-05-11T08:51:10;97341.56;;;21.71;53.02
14242;BME280;7205;50.864;12.766;2023-05-11T08:53:37;97341.06;;;21.74;52.62
14242;BME280;7205;50.864;12.766;2023-05-11T08:56:07;97343.50;;;21.75;52.56
14242;BME280;7205;50.864;12.766;2023-05-11T08:58:35;97345.66;;;21.73;51.45
14242;BME280;7205;50.864;12.766;2023-05-11T09:01:03;97346.38;;;21.69;51.38
14242;BME280;7205;50.864;12.766;2023-05-11T09:03:33;97343.09;;;21.62;50.71
14242;BME280;7205;50.864;12.766;2023-05-11T09:06:02;97339.28;;;21.58;50.96
14242;BME280;7205;50.864;12.766;2023-05-11T09:08:33;97342.16;;;21.51;50.97
14242;BME280;7205;50.864;12.766;2023-05-11T09:11:01;97338.09;;;21.49;51.39
14242;BME280;7205;50.864;12.766;2023-05-11T09:13:30;97348.59;;;21.50;51.30
14242;BME280;7205;50.864;12.766;2023-05-11T09:15:57;97345.22;;;21.60;51.42
14242;BME280;7205;50.864;12.766;2023-05-11T09:18:25;97343.75;;;21.74;51.05
14242;BME280;7205;50.864;12.766;2023-05-11T09:20:52;97334.56;;;21.91;50.78
14242;BME280;7205;50.864;12.766;2023-05-11T09:23:23;97339.28;;;22.06;49.98
14242;BME280;7205;50.864;12.766;2023-05-11T09:25:50;97339.63;;;22.14;49.47
14242;BME280;7205;50.864;12.766;2023-05-11T09:28:20;97335.31;;;22.13;48.32
14242;BME280;7205;50.864;12.766;2023-05-11T09:30:48;97343.38;;;22.13;48.68
14242;BME280;7205;50.864;12.766;2023-05-11T09:33:20;97341.00;;;22.17;48.69
14242;BME280;7205;50.864;12.766;2023-05-11T09:35:48;97347.31;;;22.32;48.94
14242;BME280;7205;50.864;12.766;2023-05-11T09:38:15;97347.25;;;22.54;48.68
14242;BME280;7205;50.864;12.766;2023-05-11T09:40:49;97341.47;;;22.72;48.29
14242;BME280;7205;50.864;12.766;2023-05-11T09:43:17;97347.47;;;22.89;47.51
14242;BME280;7205;50.864;12.766;2023-05-11T09:45:45;97346.47;;;22.95;46.80
14242;BME280;7205;50.864;12.766;2023-05-11T09:48:24;97340.28;;;23.00;46.19
14242;BME280;7205;50.864;12.766;2023-05-11T09:50:58;97346.22;;;23.02;46.12
14242;BME280;7205;50.864;12.766;2023-05-11T09:53:33;97349.97;;;23.01;45.86
14242;BME280;7205;50.864;12.766;2023-05-11T09:56:00;97353.78;;;23.05;46.04
14242;BME280;7205;50.864;12.766;2023-05-11T09:58:47;97345.41;;;23.01;45.46
14242;BME280;7205;50.864;12.766;2023-05-11T10:01:16;97337.81;;;22.93;45.25
14242;BME280;7205;50.864;12.766;2023-05-11T10:03:50;97343.69;;;22.85;45.07
14242;BME280;7205;50.864;12.766;2023-05-11T10:06:18;97336.69;;;22.84;44.97
14242;BME280;7205;50.864;12.766;2023-05-11T10:08:45;97338.84;;;22.82;44.82
14242;BME280;7205;50.864;12.766;2023-05-11T10:11:12;97326.44;;;22.81;44.71
14242;BME280;7205;50.864;12.766;2023-05-11T10:13:41;97331.25;;;22.79;44.96
14242;BME280;7205;50.864;12.766;2023-05-11T10:16:09;97332.34;;;22.78;45.03
14242;BME280;7205;50.864;12.766;2023-05-11T10:18:37;97336.34;;;22.76;44.97
14242;BME280;7205;50.864;12.766;2023-05-11T10:21:06;97337.16;;;22.76;44.96
14242;BME280;7205;50.864;12.766;2023-05-11T10:23:34;97335.63;;;22.85;44.87
14242;BME280;7205;50.864;12.766;2023-05-11T10:26:03;97338.09;;;22.97;44.47
14242;BME280;7205;50.864;12.766;2023-05-11T10:28:30;97337.09;;;23.08;44.16
14242;BME280;7205;50.864;12.766;2023-05-11T10:30:58;97337.13;;;23.18;44.23
14242;BME280;7205;50.864;12.766;2023-05-11T10:33:25;97339.59;;;23.24;43.96
14242;BME280;7205;50.864;12.766;2023-05-11T10:35:52;97338.53;;;23.25;43.84
14242;BME280;7205;50.864;12.766;2023-05-11T10:38:21;97335.34;;;23.28;43.32
14242;BME280;7205;50.864;12.766;2023-05-11T10:40:50;97332.41;;;23.35;43.67
14242;BME280;7205;50.864;12.766;2023-05-11T10:46:27;97329.47;;;23.46;42.48
14242;BME280;7205;50.864;12.766;2023-05-11T10:49:33;97321.09;;;23.43;42.06
14242;BME280;7205;50.864;12.766;2023-05-11T10:52:14;97322.44;;;23.35;41.76
14242;BME280;7205;50.864;12.766;2023-05-11T10:54:58;97332.06;;;23.26;42.16
14242;BME280;7205;50.864;12.766;2023-05-11T10:57:35;97329.63;;;23.25;41.98
14242;BME280;7205;50.864;12.766;2023-05-11T11:03:09;97321.84;;;23.28;42.18
14242;BME280;7205;50.864;12.766;2023-05-11T11:05:36;97321.63;;;23.35;42.35
14242;BME280;7205;50.864;12.766;2023-05-11T11:08:04;97317.31;;;23.39;41.50
14242;BME280;7205;50.864;12.766;2023-05-11T11:10:36;97315.41;;;23.39;40.99
14242;BME280;7205;50.864;12.766;2023-05-11T11:13:05;97318.09;;;23.34;40.53
14242;BME280;7205;50.864;12.766;2023-05-11T11:16:10;97319.44;;;23.27;41.18
14242;BME280;7205;50.864;12.766;2023-05-11T11:18:37;97321.31;;;23.31;41.02
14242;BME280;7205;50.864;12.766;2023-05-11T11:21:04;97328.09;;;23.39;41.42
14242;BME280;7205;50.864;12.766;2023-05-11T11:23:44;97319.50;;;23.47;41.06
14242;BME280;7205;50.864;12.766;2023-05-11T11:26:15;97320.63;;;23.56;40.41
14242;BME280;7205;50.864;12.766;2023-05-11T11:29:11;97320.63;;;23.61;40.65
14242;BME280;7205;50.864;12.766;2023-05-11T11:31:38;97324.41;;;23.70;40.76
14242;BME280;7205;50.864;12.766;2023-05-11T11:34:33;97309.06;;;23.76;40.56
14242;BME280;7205;50.864;12.766;2023-05-11T11:37:04;97323.38;;;23.81;40.12
14242;BME280;7205;50.864;12.766;2023-05-11T11:39:47;97319.84;;;23.76;39.83
14242;BME280;7205;50.864;12.766;2023-05-11T11:42:17;97319.56;;;23.67;39.68
14242;BME280;7205;50.864;12.766;2023-05-11T11:44:44;97314.94;;;23.52;39.71
14242;BME280;7205;50.864;12.766;2023-05-11T11:47:13;97321.63;;;23.35;39.81
14242;BME280;7205;50.864;12.766;2023-05-11T11:49:42;97319.34;;;23.17;39.67
14242;BME280;7205;50.864;12.766;2023-05-11T11:52:12;97315.75;;;23.01;39.68
14242;BME280;7205;50.864;12.766;2023-05-11T11:54:40;97320.88;;;22.98;40.10
14242;BME280;7205;50.864;12.766;2023-05-11T11:57:42;97327.06;;;22.98;40.48
14242;BME280;7205;50.864;12.766;2023-05-11T12:00:19;97310.41;;;23.06;39.94
14242;BME280;7205;50.864;12.766;2023-05-11T12:02:47;97324.47;;;23.18;39.31
14242;BME280;7205;50.864;12.766;2023-05-11T12:05:14;97321.59;;;23.30;39.23
14242;BME280;7205;50.864;12.766;2023-05-11T12:07:44;97317.88;;;23.41;38.44
14242;BME280;7205;50.864;12.766;2023-05-11T12:10:12;97318.97;;;23.50;38.64
14242;BME280;7205;50.864;12.766;2023-05-11T12:12:45;97324.66;;;23.58;38.51
14242;BME280;7205;50.864;12.766;2023-05-11T12:15:22;97324.41;;;23.65;38.71
14242;BME280;7205;50.864;12.766;2023-05-11T12:17:49;97306.38;;;23.81;38.52
14242;BME280;7205;50.864;12.766;2023-05-11T12:20:17;97322.34;;;24.02;38.57
14242;BME280;7205;50.864;12.766;2023-05-11T12:22:45;97325.06;;;24.22;38.09
14242;BME280;7205;50.864;12.766;2023-05-11T12:25:13;97317.53;;;24.34;37.82
14242;BME280;7205;50.864;12.766;2023-05-11T12:27:50;97316.97;;;24.32;37.18
14242;BME280;7205;50.864;12.766;2023-05-11T12:30:20;97326.16;;;24.16;36.78
14242;BME280;7205;50.864;12.766;2023-05-11T12:32:47;97334.69;;;23.83;35.92
14242;BME280;7205;50.864;12.766;2023-05-11T12:35:21;97338.63;;;23.40;36.07
14242;BME280;7205;50.864;12.766;2023-05-11T12:37:47;97337.03;;;22.98;36.11
14242;BME280;7205;50.864;12.766;2023-05-11T12:40:14;97330.38;;;22.64;36.69
14242;BME280;7205;50.864;12.766;2023-05-11T12:42:49;97334.91;;;22.26;36.96
14242;BME280;7205;50.864;12.766;2023-05-11T12:45:17;97331.41;;;21.99;37.55
14242;BME280;7205;50.864;12.766;2023-05-11T12:47:46;97331.69;;;21.76;37.68
14242;BME280;7205;50.864;12.766;2023-05-11T12:50:13;97324.78;;;21.59;38.38
14242;BME280;7205;50.864;12.766;2023-05-11T12:52:40;97330.22;;;21.42;38.72
14242;BME280;7205;50.864;12.766;2023-05-11T12:55:07;97330.38;;;21.31;39.07
14242;BME280;7205;50.864;12.766;2023-05-11T12:57:37;97335.03;;;21.18;39.48
14242;BME280;7205;50.864;12.766;2023-05-11T13:00:08;97335.47;;;21.10;39.84
14242;BME280;7205;50.864;12.766;2023-05-11T13:02:43;97330.31;;;21.04;40.00
14242;BME280;7205;50.864;12.766;2023-05-11T13:05:11;97323.63;;;21.06;40.03
14242;BME280;7205;50.864;12.766;2023-05-11T13:07:38;97331.19;;;21.09;40.24
14242;BME280;7205;50.864;12.766;2023-05-11T13:10:06;97329.63;;;21.13;40.17
14242;BME280;7205;50.864;12.766;2023-05-11T13:12:33;97313.56;;;21.18;40.39